KHWD

Hayward Executive Airport

Hayward, California, USA
METAR KHWD 230254Z 26008KT 10SM SCT011 OVC019 14/11 A2991 RMK AO2 SLP137 T01390106 51003
Observed Flight Rules
May-23 @ 02:54 UTC (33 minutes ago) Marginal Visual Flight Rules
Wind Visibility Clouds
260° at 8 knots 10 miles
  • Scattered at 1,100' AGL
  • Overcast at 1,900' AGL
Temperatures Readings
Current 14°C / 57°F
Dewpoint 11°C / 52°F
Humidity 82%
Altimeter 29.91" Hg
Pressure 1013.7 hPa
Elevation 21
METAR KHWD 230254Z 26008KT 10SM SCT011 OVC019 14/11 A2991 RMK AO2 SLP137 T01390106 51003
Observed Flight Rules
May-23 @ 02:54 UTC
(33 minutes ago)
MVFR
Wind Visibility
260° at 8 knots 10 miles
Clouds
  • Scattered at 1,100' AGL
  • Overcast at 1,900' AGL
Temperature Dewpoint
14°C / 57°F 11°C / 52°F
Humidity Altimeter Pressure
82% 29.91" Hg 1013.7 hPa